ngouveia

  • Mensagens: 522


Citação de: avherald.com
A TAM Linhas Aereas Airbus A320-200, registration PR-MAR performing flight JJ-3491 from Londrina,PR to Sao Paulo Guarulhos,SP (Brazil), was accelerating for takeoff from Londrina's runway 13 at 11:29L (13:29Z) when the crew encountered directional control problems requiring the use of the full width of the runway and rejected takeoff. The aircraft slowed safely, stopped on the runway and was towed to the apron.

The airport was closed for about 30 minutes until the aircraft was towed off the runway.

The aircraft is still on the ground about 6 hours later.

The airline stated the passengers disembarked safely and have been rebooked onto other flights. The occurrence is being analysed.

On Nov 14th 2015 TAM added, that an examination of the aircraft showed the nose wheel steering went into failure mode while the aircraft was accelerating, the takeoff was rejected at low speed.

Londrina features an asphalt runway 13/31 of 2100 meters/6890 feet length and 45 meters/150 feet width.

Metars:
SBLO 131500Z 36006KT 9999 FEW030 33/24 Q1013
SBLO 131400Z 09004KT CAVOK 31/23 Q1013
SBLO 131300Z 12005KT CAVOK 30/24 Q1014
SBLO 131200Z 06002KT CAVOK 29/23 Q1013
SBLO 131100Z 12003KT CAVOK 27/23 Q1012
SBLO 131000Z 15003KT CAVOK 25/22 Q1012

http://avherald.com/h?article=48f49ff0&opt=0

Resposta rápida

Com a resposta rápida pode escrever uma mensagem quando está a ver um tópico sem carregar uma nova página. Pode, ainda, usar o código BBC e os risonhos como usaria numa mensagem normal.

Aviso: este tópico não tem nenhuma mensagem nova há, pelo menos, 90 dias.
A não ser que tenha a certeza que quer responder, por favor, considere a hipótese de criar um novo tópico.

Nota: esta mensagem não irá aparecer até ter sido aprovada por um moderador.
Nome: Email:
Verificação:

 

Tópicos Relacionados

  Assunto / Iniciado por Respostas Última mensagem
9 Respostas
1637 Visualizações
Última mensagem 31 de Outubro 2015, 10:46:33
por david1990
4 Respostas
1796 Visualizações
Última mensagem 17 de Julho 2016, 13:51:06
por jumbalino
47 Respostas
7100 Visualizações
Última mensagem 04 de Novembro 2016, 22:35:48
por Spark
Perda de voo com escala

Iniciado por Kalinka « 1 2 » TAP

25 Respostas
3545 Visualizações
Última mensagem 23 de Outubro 2017, 18:14:56
por nunopinheiro
26 Respostas
3814 Visualizações
Última mensagem 08 de Agosto 2018, 19:17:26
por JGonzo

Total 83+0=83 ms, db 0 ms, php 83 ms